Luncarty, United Kingdom
Current Conditions -  °F | °C
As of 3:50 PM on Sunday 25 Jan 2015 (Local Time) from EGPN Reporting Station
Broken Clouds Broken Clouds  
Wind Chill: 39°   Ceiling: 1700
Heat Index: 46°   Visibility: 6mi
Dew Point: 45°   Wind: 21mph
Humidity: 93%   Direction: 240°WSW
Pressure: 29.94"   Gusts: NA
Location:  56.45°N, 3.47°W
Report Text: EGPN 251550Z 24018KT 9999 SCT010 BKN017 08/07 Q1014
Loading
Personal Weather Stations






























Interactive Weather Map New forecast layout! Learn more

10-Day Weather Forecast

Advertisements
Track Severe Weather on mobile